Aeroporto :
LOGIN :

Iscrizione | Disclaimer

   EN    FR    IT 

 










Sommario :    VFR   VFR Marginale   IFR   IFR Intensivo   IFR Molto Intensivo
Visibilità : 
Base nubi : 
>= 8 km
>= 3000ft
5 / 8 km
1000 / 3000 ft
1500m / 5 km
500 / 1000 ft
800 / 1500m
200 / 500 ft
< 800m
< 200 ft
Simboli :   Temporali  Nebbia  Neve Forte  Precipitazioni Forti  Vento > 20 kt
SIGMETs :   Varie  Temporali  Ghiacco  Turbolenza  Onda orograficha  Ceneri Vulcaniche






- Altitudine del aeroporto : 1017 ft


LFSL - Brive Souillac

ULTIMO METAR :
  • 120300Z AUTO 23003KT 180V290 9999 FEW020 SCT037 BKN045 04/03 Q1013

METARs OBSOLETI :
  • 120230Z AUTO VRB03KT CAVOK 03/03 Q1014
  • 120200Z AUTO 25003KT 210V290 CAVOK 03/03 Q1014
  • 120130Z AUTO 25003KT 210V280 9999 BKN031 04/03 Q1014
  • 120100Z AUTO 25004KT 220V290 9999 FEW017/// SCT030/// BKN036/// ///CB 04/03 Q1014
  • 120030Z AUTO 26005KT 230V290 9999 FEW028/// SCT046/// BKN058/// ///TCU 04/03 Q1014

TAF TAF LFSL
Valido dal 12 a 03 ore il 12 a 12 ore UTC


120200Z 1203/1212 25005KT CAVOK
BECMG 1203/1205 BKN010 BKN030
TEMPO 1207/1212 4000 RA OVC005



MetMap, La meteo Aeronautica in un colpo d'occhio ! - Copyright ORBIFLY Dicembre 2007 - Disclaimer

ORBIFLY MET'MAP TEAM :

Programmazione e sviluppo : Alexandra Zaïnal
Concezione : Baudouin d'Aumeries
Aiuto per la programmazione : Marc-Olivier Méhu
Supporto tecnico e logistico : Manuel Goepfert
Aiuto per la traduzione : Arnaldo La Scala

Contatto : metmap@orbifly.com




FONTI E CREDITI :

   NOAA